sensor_id;sensor_type;location;lat;lon;timestamp;pressure;altitude;pressure_sealevel;temperature;humidity
21357;BME280;10836;53.068;18.234;2022-08-25T00:00:11;101450.78;;;19.75;100.00
21357;BME280;10836;53.068;18.234;2022-08-25T00:02:58;101452.94;;;19.78;100.00
21357;BME280;10836;53.068;18.234;2022-08-25T00:05:28;101471.97;;;19.71;100.00
21357;BME280;10836;53.068;18.234;2022-08-25T00:08:00;101474.03;;;19.66;100.00
21357;BME280;10836;53.068;18.234;2022-08-25T00:10:28;101476.00;;;19.65;100.00
21357;BME280;10836;53.068;18.234;2022-08-25T00:12:55;101485.06;;;19.57;100.00
21357;BME280;10836;53.068;18.234;2022-08-25T00:15:23;101490.84;;;19.47;100.00
21357;BME280;10836;53.068;18.234;2022-08-25T00:17:50;101490.44;;;19.40;100.00
21357;BME280;10836;53.068;18.234;2022-08-25T00:20:17;101492.28;;;19.44;100.00
21357;BME280;10836;53.068;18.234;2022-08-25T00:22:44;101492.91;;;19.41;100.00
21357;BME280;10836;53.068;18.234;2022-08-25T00:25:12;101499.28;;;19.42;100.00
21357;BME280;10836;53.068;18.234;2022-08-25T00:27:39;101498.66;;;19.45;100.00
21357;BME280;10836;53.068;18.234;2022-08-25T00:30:06;101505.44;;;19.39;100.00
21357;BME280;10836;53.068;18.234;2022-08-25T00:32:34;101495.47;;;19.38;100.00
21357;BME280;10836;53.068;18.234;2022-08-25T00:35:03;101502.16;;;19.37;100.00
21357;BME280;10836;53.068;18.234;2022-08-25T00:37:30;101513.53;;;19.35;100.00
21357;BME280;10836;53.068;18.234;2022-08-25T00:39:58;101508.28;;;19.47;100.00
21357;BME280;10836;53.068;18.234;2022-08-25T00:42:25;101513.06;;;19.55;100.00
21357;BME280;10836;53.068;18.234;2022-08-25T00:44:52;101509.47;;;19.55;100.00
21357;BME280;10836;53.068;18.234;2022-08-25T00:47:20;101515.03;;;19.55;100.00
21357;BME280;10836;53.068;18.234;2022-08-25T00:49:51;101512.50;;;19.67;100.00
21357;BME280;10836;53.068;18.234;2022-08-25T00:54:52;101520.63;;;19.64;100.00
21357;BME280;10836;53.068;18.234;2022-08-25T00:57:25;101510.88;;;19.66;100.00
21357;BME280;10836;53.068;18.234;2022-08-25T01:00:13;101520.94;;;19.62;100.00
21357;BME280;10836;53.068;18.234;2022-08-25T01:02:41;101519.75;;;19.54;100.00
21357;BME280;10836;53.068;18.234;2022-08-25T01:05:09;101512.34;;;19.50;100.00
21357;BME280;10836;53.068;18.234;2022-08-25T01:07:36;101517.28;;;19.53;100.00
21357;BME280;10836;53.068;18.234;2022-08-25T01:10:05;101511.88;;;19.48;100.00
21357;BME280;10836;53.068;18.234;2022-08-25T01:12:34;101506.72;;;19.55;100.00
21357;BME280;10836;53.068;18.234;2022-08-25T01:15:04;101509.47;;;19.55;100.00
21357;BME280;10836;53.068;18.234;2022-08-25T01:17:45;101502.94;;;19.51;100.00
21357;BME280;10836;53.068;18.234;2022-08-25T01:20:14;101501.25;;;19.50;100.00
21357;BME280;10836;53.068;18.234;2022-08-25T01:22:41;101510.38;;;19.50;100.00
21357;BME280;10836;53.068;18.234;2022-08-25T01:25:24;101503.38;;;19.44;100.00
21357;BME280;10836;53.068;18.234;2022-08-25T01:27:55;101505.69;;;19.51;100.00
21357;BME280;10836;53.068;18.234;2022-08-25T01:30:23;101508.97;;;19.53;100.00
21357;BME280;10836;53.068;18.234;2022-08-25T01:32:51;101508.59;;;19.46;100.00
21357;BME280;10836;53.068;18.234;2022-08-25T01:35:18;101505.44;;;19.39;100.00
21357;BME280;10836;53.068;18.234;2022-08-25T01:37:45;101499.31;;;19.28;100.00
21357;BME280;10836;53.068;18.234;2022-08-25T01:40:13;101509.16;;;19.20;100.00
21357;BME280;10836;53.068;18.234;2022-08-25T01:45:33;101507.53;;;19.19;100.00
21357;BME280;10836;53.068;18.234;2022-08-25T01:48:01;101510.53;;;19.09;100.00
21357;BME280;10836;53.068;18.234;2022-08-25T01:50:28;101506.41;;;19.20;100.00
21357;BME280;10836;53.068;18.234;2022-08-25T01:53:22;101514.72;;;19.20;100.00
21357;BME280;10836;53.068;18.234;2022-08-25T01:55:50;101504.47;;;19.07;100.00
21357;BME280;10836;53.068;18.234;2022-08-25T02:00:50;101504.47;;;19.07;100.00
21357;BME280;10836;53.068;18.234;2022-08-25T02:03:17;101498.47;;;19.05;100.00
21357;BME280;10836;53.068;18.234;2022-08-25T02:05:45;101499.16;;;19.11;100.00
21357;BME280;10836;53.068;18.234;2022-08-25T02:08:14;101505.75;;;19.01;100.00
21357;BME280;10836;53.068;18.234;2022-08-25T02:10:42;101506.31;;;19.12;100.00
21357;BME280;10836;53.068;18.234;2022-08-25T02:13:09;101500.78;;;19.12;100.00
21357;BME280;10836;53.068;18.234;2022-08-25T02:15:41;101504.25;;;19.17;100.00
21357;BME280;10836;53.068;18.234;2022-08-25T02:18:10;101495.94;;;19.17;100.00
21357;BME280;10836;53.068;18.234;2022-08-25T02:20:37;101495.44;;;19.15;100.00
21357;BME280;10836;53.068;18.234;2022-08-25T02:23:05;101489.91;;;19.15;100.00
21357;BME280;10836;53.068;18.234;2022-08-25T02:25:32;101491.53;;;19.16;100.00
21357;BME280;10836;53.068;18.234;2022-08-25T02:27:59;101488.56;;;19.13;100.00
21357;BME280;10836;53.068;18.234;2022-08-25T02:30:26;101490.53;;;19.12;100.00
21357;BME280;10836;53.068;18.234;2022-08-25T02:32:54;101490.16;;;19.05;100.00
21357;BME280;10836;53.068;18.234;2022-08-25T02:35:21;101482.84;;;19.09;100.00
21357;BME280;10836;53.068;18.234;2022-08-25T02:37:50;101481.97;;;19.00;100.00
21357;BME280;10836;53.068;18.234;2022-08-25T02:40:20;101478.81;;;18.93;100.00
21357;BME280;10836;53.068;18.234;2022-08-25T02:42:49;101480.34;;;18.99;100.00
21357;BME280;10836;53.068;18.234;2022-08-25T02:45:17;101483.22;;;18.94;100.00
21357;BME280;10836;53.068;18.234;2022-08-25T02:47:45;101471.75;;;18.87;100.00
21357;BME280;10836;53.068;18.234;2022-08-25T02:50:12;101478.41;;;18.86;100.00
21357;BME280;10836;53.068;18.234;2022-08-25T02:52:39;101475.31;;;18.87;100.00
21357;BME280;10836;53.068;18.234;2022-08-25T02:55:09;101468.88;;;18.78;100.00
21357;BME280;10836;53.068;18.234;2022-08-25T02:57:40;101475.44;;;18.69;100.00
21357;BME280;10836;53.068;18.234;2022-08-25T03:00:13;101477.91;;;18.70;100.00
21357;BME280;10836;53.068;18.234;2022-08-25T03:02:41;101471.75;;;18.73;100.00
21357;BME280;10836;53.068;18.234;2022-08-25T03:05:10;101475.44;;;18.69;100.00
21357;BME280;10836;53.068;18.234;2022-08-25T03:07:37;101482.63;;;18.70;100.00
21357;BME280;10836;53.068;18.234;2022-08-25T03:10:11;101475.66;;;18.58;100.00
21357;BME280;10836;53.068;18.234;2022-08-25T03:12:40;101475.06;;;18.62;100.00
21357;BME280;10836;53.068;18.234;2022-08-25T03:15:13;101471.03;;;18.54;100.00
21357;BME280;10836;53.068;18.234;2022-08-25T03:17:45;101471.19;;;18.63;100.00
21357;BME280;10836;53.068;18.234;2022-08-25T03:20:13;101481.81;;;18.55;100.00
21357;BME280;10836;53.068;18.234;2022-08-25T03:22:40;101484.88;;;18.54;100.00
21357;BME280;10836;53.068;18.234;2022-08-25T03:25:09;101480.38;;;18.58;100.00
21357;BME280;10836;53.068;18.234;2022-08-25T03:27:55;101472.63;;;18.60;100.00
21357;BME280;10836;53.068;18.234;2022-08-25T03:30:22;101478.53;;;18.53;100.00
21357;BME280;10836;53.068;18.234;2022-08-25T03:32:49;101475.06;;;18.62;100.00
21357;BME280;10836;53.068;18.234;2022-08-25T03:35:16;101472.88;;;18.58;100.00
21357;BME280;10836;53.068;18.234;2022-08-25T03:37:44;101474.00;;;18.57;100.00
21357;BME280;10836;53.068;18.234;2022-08-25T03:40:13;101479.53;;;18.57;100.00
21357;BME280;10836;53.068;18.234;2022-08-25T03:42:43;101474.84;;;18.58;100.00
21357;BME280;10836;53.068;18.234;2022-08-25T03:45:13;101491.44;;;18.58;100.00
21357;BME280;10836;53.068;18.234;2022-08-25T03:47:41;101480.78;;;18.51;100.00
21357;BME280;10836;53.068;18.234;2022-08-25T03:50:10;101485.09;;;18.57;100.00
21357;BME280;10836;53.068;18.234;2022-08-25T03:52:37;101497.06;;;18.53;100.00
21357;BME280;10836;53.068;18.234;2022-08-25T03:55:11;101488.75;;;18.67;100.00
21357;BME280;10836;53.068;18.234;2022-08-25T03:57:39;101489.78;;;18.71;100.00
21357;BME280;10836;53.068;18.234;2022-08-25T04:00:08;101493.69;;;18.70;100.00
21357;BME280;10836;53.068;18.234;2022-08-25T04:02:39;101503.22;;;18.64;100.00
21357;BME280;10836;53.068;18.234;2022-08-25T04:05:08;101489.38;;;18.64;100.00
21357;BME280;10836;53.068;18.234;2022-08-25T04:07:35;101492.03;;;18.69;100.00
21357;BME280;10836;53.068;18.234;2022-08-25T04:10:04;101494.31;;;18.67;100.00
21357;BME280;10836;53.068;18.234;2022-08-25T04:12:32;101492.97;;;18.64;100.00
21357;BME280;10836;53.068;18.234;2022-08-25T04:15:00;101490.91;;;18.70;100.00
21357;BME280;10836;53.068;18.234;2022-08-25T04:17:27;101497.38;;;18.79;100.00
21357;BME280;10836;53.068;18.234;2022-08-25T04:19:55;101499.00;;;18.80;100.00
21357;BME280;10836;53.068;18.234;2022-08-25T04:22:22;101507.19;;;18.85;100.00
21357;BME280;10836;53.068;18.234;2022-08-25T04:24:50;101498.19;;;18.93;100.00
21357;BME280;10836;53.068;18.234;2022-08-25T04:27:17;101505.84;;;18.96;100.00
21357;BME280;10836;53.068;18.234;2022-08-25T04:29:44;101504.13;;;19.00;100.00
21357;BME280;10836;53.068;18.234;2022-08-25T04:32:11;101509.41;;;19.10;100.00
21357;BME280;10836;53.068;18.234;2022-08-25T04:34:39;101503.63;;;19.20;100.00
21357;BME280;10836;53.068;18.234;2022-08-25T04:37:07;101503.28;;;19.36;100.00
21357;BME280;10836;53.068;18.234;2022-08-25T04:39:35;101505.00;;;19.45;100.00
21357;BME280;10836;53.068;18.234;2022-08-25T04:42:02;101502.94;;;19.51;100.00
21357;BME280;10836;53.068;18.234;2022-08-25T04:44:30;101501.69;;;19.57;100.00
21357;BME280;10836;53.068;18.234;2022-08-25T04:46:58;101507.22;;;19.57;100.00
21357;BME280;10836;53.068;18.234;2022-08-25T04:49:26;101508.22;;;19.61;100.00
21357;BME280;10836;53.068;18.234;2022-08-25T04:51:54;101501.44;;;19.67;100.00
21357;BME280;10836;53.068;18.234;2022-08-25T04:54:23;101498.53;;;19.72;100.00
21357;BME280;10836;53.068;18.234;2022-08-25T04:56:51;101505.72;;;19.73;100.00
21357;BME280;10836;53.068;18.234;2022-08-25T04:59:24;101498.53;;;19.72;100.00
21357;BME280;10836;53.068;18.234;2022-08-25T05:01:58;101494.56;;;19.87;100.00
21357;BME280;10836;53.068;18.234;2022-08-25T05:04:28;101495.91;;;19.98;100.00
21357;BME280;10836;53.068;18.234;2022-08-25T05:06:57;101499.38;;;20.04;100.00
21357;BME280;10836;53.068;18.234;2022-08-25T05:09:25;101500.28;;;19.90;100.00
21357;BME280;10836;53.068;18.234;2022-08-25T05:11:53;101501.63;;;20.02;100.00
21357;BME280;10836;53.068;18.234;2022-08-25T05:14:21;101505.66;;;20.18;100.00
21357;BME280;10836;53.068;18.234;2022-08-25T05:16:56;101497.00;;;20.19;100.00
21357;BME280;10836;53.068;18.234;2022-08-25T05:19:24;101496.56;;;20.26;100.00
21357;BME280;10836;53.068;18.234;2022-08-25T05:21:52;101499.66;;;20.24;100.00
21357;BME280;10836;53.068;18.234;2022-08-25T05:24:20;101502.47;;;20.33;100.00
21357;BME280;10836;53.068;18.234;2022-08-25T05:26:48;101502.09;;;20.26;100.00
21357;BME280;10836;53.068;18.234;2022-08-25T05:29:15;101503.56;;;20.23;100.00
21357;BME280;10836;53.068;18.234;2022-08-25T05:31:43;101499.47;;;20.21;100.00
21357;BME280;10836;53.068;18.234;2022-08-25T05:34:16;101507.34;;;20.36;100.00
21357;BME280;10836;53.068;18.234;2022-08-25T05:36:45;101503.66;;;20.41;100.00
21357;BME280;10836;53.068;18.234;2022-08-25T05:39:12;101514.13;;;20.52;100.00
21357;BME280;10836;53.068;18.234;2022-08-25T05:41:40;101513.34;;;20.61;100.00
21357;BME280;10836;53.068;18.234;2022-08-25T05:44:07;101512.84;;;20.58;100.00
21357;BME280;10836;53.068;18.234;2022-08-25T05:46:35;101509.31;;;20.67;100.00
21357;BME280;10836;53.068;18.234;2022-08-25T05:49:02;101508.81;;;20.65;100.00
21357;BME280;10836;53.068;18.234;2022-08-25T05:51:29;101508.81;;;20.82;100.00
21357;BME280;10836;53.068;18.234;2022-08-25T05:53:56;101504.91;;;20.83;100.00
21357;BME280;10836;53.068;18.234;2022-08-25T05:56:23;101516.41;;;21.07;100.00
21357;BME280;10836;53.068;18.234;2022-08-25T05:58:50;101511.31;;;21.01;100.00
21357;BME280;10836;53.068;18.234;2022-08-25T06:01:22;101517.22;;;21.08;100.00
21357;BME280;10836;53.068;18.234;2022-08-25T06:04:14;101521.97;;;21.16;100.00
21357;BME280;10836;53.068;18.234;2022-08-25T06:06:43;101520.34;;;21.23;100.00
21357;BME280;10836;53.068;18.234;2022-08-25T06:09:11;101517.44;;;21.46;100.00
21357;BME280;10836;53.068;18.234;2022-08-25T06:11:39;101526.25;;;21.31;100.00
21357;BME280;10836;53.068;18.234;2022-08-25T06:14:08;101525.75;;;21.20;100.00
21357;BME280;10836;53.068;18.234;2022-08-25T06:16:37;101520.31;;;21.06;100.00
21357;BME280;10836;53.068;18.234;2022-08-25T06:19:07;101519.00;;;21.04;100.00
21357;BME280;10836;53.068;18.234;2022-08-25T06:21:35;101531.78;;;21.13;100.00
21357;BME280;10836;53.068;18.234;2022-08-25T06:24:05;101522.00;;;21.24;100.00
21357;BME280;10836;53.068;18.234;2022-08-25T06:26:37;101529.19;;;21.25;100.00
21357;BME280;10836;53.068;18.234;2022-08-25T06:29:04;101527.88;;;21.23;100.00
21357;BME280;10836;53.068;18.234;2022-08-25T06:31:31;101524.13;;;21.36;100.00
21357;BME280;10836;53.068;18.234;2022-08-25T06:33:59;101526.91;;;21.45;100.00
21357;BME280;10836;53.068;18.234;2022-08-25T06:36:26;101526.25;;;21.48;100.00
21357;BME280;10836;53.068;18.234;2022-08-25T06:38:53;101520.69;;;21.48;100.00
21357;BME280;10836;53.068;18.234;2022-08-25T06:41:20;101528.56;;;21.46;100.00
21357;BME280;10836;53.068;18.234;2022-08-25T06:43:48;101531.16;;;21.51;100.00
21357;BME280;10836;53.068;18.234;2022-08-25T06:46:24;101526.75;;;21.50;100.00
21357;BME280;10836;53.068;18.234;2022-08-25T06:49:05;101517.72;;;21.70;100.00
21357;BME280;10836;53.068;18.234;2022-08-25T06:51:34;101512.97;;;21.97;100.00
21357;BME280;10836;53.068;18.234;2022-08-25T06:54:05;101509.59;;;22.29;100.00
21357;BME280;10836;53.068;18.234;2022-08-25T06:56:32;101505.53;;;22.56;100.00
21357;BME280;10836;53.068;18.234;2022-08-25T06:59:04;101503.47;;;22.82;100.00
21357;BME280;10836;53.068;18.234;2022-08-25T07:01:32;101513.13;;;22.85;98.93
21357;BME280;10836;53.068;18.234;2022-08-25T07:04:03;101512.84;;;22.99;98.60
21357;BME280;10836;53.068;18.234;2022-08-25T07:06:37;101508.03;;;22.87;98.40
21357;BME280;10836;53.068;18.234;2022-08-25T07:09:09;101517.75;;;22.81;97.77
21357;BME280;10836;53.068;18.234;2022-08-25T07:11:38;101505.53;;;22.94;97.31
21357;BME280;10836;53.068;18.234;2022-08-25T07:14:07;101510.09;;;23.19;96.39
21357;BME280;10836;53.068;18.234;2022-08-25T07:16:35;101500.91;;;23.40;95.34
21357;BME280;10836;53.068;18.234;2022-08-25T07:19:03;101500.78;;;23.57;93.53
21357;BME280;10836;53.068;18.234;2022-08-25T07:21:33;101506.47;;;23.94;92.63
21357;BME280;10836;53.068;18.234;2022-08-25T07:24:10;101496.75;;;24.00;91.04
21357;BME280;10836;53.068;18.234;2022-08-25T07:26:39;101510.75;;;24.24;89.21
21357;BME280;10836;53.068;18.234;2022-08-25T07:29:12;101510.56;;;24.41;88.02
21357;BME280;10836;53.068;18.234;2022-08-25T07:31:39;101513.88;;;24.10;88.58
21357;BME280;10836;53.068;18.234;2022-08-25T07:34:07;101514.13;;;24.17;90.05
21357;BME280;10836;53.068;18.234;2022-08-25T07:36:55;101505.41;;;24.19;89.97
21357;BME280;10836;53.068;18.234;2022-08-25T07:39:23;101509.47;;;24.21;90.62
21357;BME280;10836;53.068;18.234;2022-08-25T07:41:51;101512.19;;;24.42;90.40
21357;BME280;10836;53.068;18.234;2022-08-25T07:44:21;101506.22;;;24.32;88.57
21357;BME280;10836;53.068;18.234;2022-08-25T07:46:49;101511.91;;;24.23;88.91
21357;BME280;10836;53.068;18.234;2022-08-25T07:49:17;101498.34;;;24.46;89.65
21357;BME280;10836;53.068;18.234;2022-08-25T07:51:53;101505.22;;;24.61;87.89
21357;BME280;10836;53.068;18.234;2022-08-25T07:54:33;101503.34;;;24.77;86.89
21357;BME280;10836;53.068;18.234;2022-08-25T07:57:08;101509.38;;;24.79;88.16
21357;BME280;10836;53.068;18.234;2022-08-25T07:59:40;101504.75;;;24.59;87.57
21357;BME280;10836;53.068;18.234;2022-08-25T08:02:10;101503.00;;;23.97;90.28
21357;BME280;10836;53.068;18.234;2022-08-25T08:04:49;101510.72;;;24.12;89.32
21357;BME280;10836;53.068;18.234;2022-08-25T08:07:24;101512.25;;;23.76;91.05
21357;BME280;10836;53.068;18.234;2022-08-25T08:10:12;101517.78;;;23.64;92.41
21357;BME280;10836;53.068;18.234;2022-08-25T08:13:00;101518.00;;;23.59;92.66
21357;BME280;10836;53.068;18.234;2022-08-25T08:15:28;101519.81;;;23.55;92.02
21357;BME280;10836;53.068;18.234;2022-08-25T08:17:57;101509.22;;;23.69;91.49
21357;BME280;10836;53.068;18.234;2022-08-25T08:20:25;101515.28;;;23.83;91.16
21357;BME280;10836;53.068;18.234;2022-08-25T08:22:53;101506.22;;;23.86;90.62
21357;BME280;10836;53.068;18.234;2022-08-25T08:25:21;101505.97;;;24.12;91.24
21357;BME280;10836;53.068;18.234;2022-08-25T08:27:54;101507.72;;;24.17;88.33
21357;BME280;10836;53.068;18.234;2022-08-25T08:30:23;101512.84;;;24.27;87.94
21357;BME280;10836;53.068;18.234;2022-08-25T08:32:53;101505.91;;;24.45;87.44
21357;BME280;10836;53.068;18.234;2022-08-25T08:35:39;101506.91;;;24.16;88.60
21357;BME280;10836;53.068;18.234;2022-08-25T08:38:07;101507.50;;;24.22;89.69
21357;BME280;10836;53.068;18.234;2022-08-25T08:40:48;101510.78;;;24.48;86.86
21357;BME280;10836;53.068;18.234;2022-08-25T08:43:41;101511.97;;;24.47;87.49
21357;BME280;10836;53.068;18.234;2022-08-25T08:46:09;101513.00;;;24.55;86.85
21357;BME280;10836;53.068;18.234;2022-08-25T08:48:59;101509.53;;;24.58;87.28
21357;BME280;10836;53.068;18.234;2022-08-25T08:51:32;101505.47;;;24.68;85.17
21357;BME280;10836;53.068;18.234;2022-08-25T08:54:07;101501.38;;;25.02;83.59
21357;BME280;10836;53.068;18.234;2022-08-25T08:56:44;101506.91;;;25.14;82.62
21357;BME280;10836;53.068;18.234;2022-08-25T08:59:27;101501.50;;;25.61;80.68
21357;BME280;10836;53.068;18.234;2022-08-25T09:01:59;101499.34;;;25.82;80.24
21357;BME280;10836;53.068;18.234;2022-08-25T09:04:36;101499.75;;;25.97;78.65
21357;BME280;10836;53.068;18.234;2022-08-25T09:07:30;101499.84;;;25.72;78.86
21357;BME280;10836;53.068;18.234;2022-08-25T09:09:59;101504.13;;;25.54;79.97
21357;BME280;10836;53.068;18.234;2022-08-25T09:18:08;101503.31;;;27.07;73.73
21357;BME280;10836;53.068;18.234;2022-08-25T09:20:48;101500.91;;;27.44;70.51
21357;BME280;10836;53.068;18.234;2022-08-25T09:23:24;101493.59;;;27.78;71.33
21357;BME280;10836;53.068;18.234;2022-08-25T09:28:51;101497.47;;;29.41;63.40
21357;BME280;10836;53.068;18.234;2022-08-25T09:31:25;101493.88;;;30.18;62.23
21357;BME280;10836;53.068;18.234;2022-08-25T09:33:59;101497.63;;;31.53;57.55
21357;BME280;10836;53.068;18.234;2022-08-25T09:36:29;101500.09;;;30.89;57.87
21357;BME280;10836;53.068;18.234;2022-08-25T09:39:04;101496.03;;;29.95;61.25
21357;BME280;10836;53.068;18.234;2022-08-25T09:41:47;101489.25;;;29.62;61.28
21357;BME280;10836;53.068;18.234;2022-08-25T09:44:25;101485.63;;;28.98;64.01
21357;BME280;10836;53.068;18.234;2022-08-25T09:47:01;101489.25;;;28.50;65.74
21357;BME280;10836;53.068;18.234;2022-08-25T09:49:45;101492.50;;;28.06;67.64
21357;BME280;10836;53.068;18.234;2022-08-25T09:57:46;101480.00;;;27.42;68.23
21357;BME280;10836;53.068;18.234;2022-08-25T10:02:43;101473.50;;;27.38;69.42
21357;BME280;10836;53.068;18.234;2022-08-25T10:05:23;101476.53;;;28.10;69.91
21357;BME280;10836;53.068;18.234;2022-08-25T10:07:56;101467.69;;;28.08;68.38
21357;BME280;10836;53.068;18.234;2022-08-25T10:10:37;101461.72;;;27.90;68.90
21357;BME280;10836;53.068;18.234;2022-08-25T10:13:18;101468.94;;;28.33;68.03
21357;BME280;10836;53.068;18.234;2022-08-25T10:19:07;101452.25;;;28.21;67.59
21357;BME280;10836;53.068;18.234;2022-08-25T10:21:37;101452.03;;;29.12;65.02
21357;BME280;10836;53.068;18.234;2022-08-25T10:24:07;101446.94;;;29.89;60.68
21357;BME280;10836;53.068;18.234;2022-08-25T10:34:37;101432.63;;;29.00;65.62
21357;BME280;10836;53.068;18.234;2022-08-25T10:40:01;101431.09;;;30.18;59.83
21357;BME280;10836;53.068;18.234;2022-08-25T10:42:47;101422.25;;;31.71;55.79
21357;BME280;10836;53.068;18.234;2022-08-25T10:45:24;101422.31;;;32.43;51.98
21357;BME280;10836;53.068;18.234;2022-08-25T10:56:26;101429.00;;;33.13;51.25
21357;BME280;10836;53.068;18.234;2022-08-25T11:04:25;101420.75;;;34.54;48.05
21357;BME280;10836;53.068;18.234;2022-08-25T11:07:03;101414.41;;;34.77;47.11
21357;BME280;10836;53.068;18.234;2022-08-25T11:09:37;101415.22;;;34.40;45.78
21357;BME280;10836;53.068;18.234;2022-08-25T11:12:13;101419.22;;;34.83;44.99
21357;BME280;10836;53.068;18.234;2022-08-25T11:14:48;101398.00;;;34.95;43.30
21357;BME280;10836;53.068;18.234;2022-08-25T11:17:36;101414.78;;;34.79;43.86
21357;BME280;10836;53.068;18.234;2022-08-25T11:20:11;101414.19;;;34.19;44.09
21357;BME280;10836;53.068;18.234;2022-08-25T11:25:43;101398.63;;;34.38;43.86
21357;BME280;10836;53.068;18.234;2022-08-25T11:28:17;101398.22;;;34.36;41.95
21357;BME280;10836;53.068;18.234;2022-08-25T11:30:50;101399.72;;;35.50;40.43
21357;BME280;10836;53.068;18.234;2022-08-25T11:33:18;101389.91;;;34.93;41.25
21357;BME280;10836;53.068;18.234;2022-08-25T11:35:59;101388.53;;;34.71;42.46
21357;BME280;10836;53.068;18.234;2022-08-25T11:49:33;101378.06;;;33.79;44.22
21357;BME280;10836;53.068;18.234;2022-08-25T11:58:26;101368.28;;;33.87;43.60
21357;BME280;10836;53.068;18.234;2022-08-25T12:00:58;101373.84;;;34.01;43.29
21357;BME280;10836;53.068;18.234;2022-08-25T12:06:26;101366.88;;;32.84;46.98
21357;BME280;10836;53.068;18.234;2022-08-25T12:24:54;101363.22;;;32.87;46.28
21357;BME280;10836;53.068;18.234;2022-08-25T12:35:27;101355.59;;;32.66;47.33
21357;BME280;10836;53.068;18.234;2022-08-25T12:38:33;101350.31;;;32.79;46.90
21357;BME280;10836;53.068;18.234;2022-08-25T12:41:15;101347.94;;;32.60;47.56
21357;BME280;10836;53.068;18.234;2022-08-25T12:43:47;101337.19;;;33.17;46.94
21357;BME280;10836;53.068;18.234;2022-08-25T12:59:58;101323.81;;;32.27;47.42
21357;BME280;10836;53.068;18.234;2022-08-25T13:02:45;101317.38;;;31.98;47.74
21357;BME280;10836;53.068;18.234;2022-08-25T13:11:02;101309.78;;;33.00;45.68
21357;BME280;10836;53.068;18.234;2022-08-25T13:16:20;101307.56;;;32.52;46.15
21357;BME280;10836;53.068;18.234;2022-08-25T13:18:55;101301.97;;;32.42;46.16
21357;BME280;10836;53.068;18.234;2022-08-25T13:21:37;101304.03;;;32.30;47.07
21357;BME280;10836;53.068;18.234;2022-08-25T13:24:29;101304.34;;;32.50;46.87
21357;BME280;10836;53.068;18.234;2022-08-25T13:27:05;101311.69;;;32.33;47.21
21357;BME280;10836;53.068;18.234;2022-08-25T13:29:47;101314.91;;;32.28;47.92
21357;BME280;10836;53.068;18.234;2022-08-25T13:32:24;101300.38;;;32.19;47.78
21357;BME280;10836;53.068;18.234;2022-08-25T13:35:28;101302.00;;;32.09;47.53
21357;BME280;10836;53.068;18.234;2022-08-25T13:38:12;101296.34;;;32.27;47.94
21357;BME280;10836;53.068;18.234;2022-08-25T13:40:40;101296.41;;;31.70;49.38
21357;BME280;10836;53.068;18.234;2022-08-25T13:43:12;101298.03;;;31.75;48.92
21357;BME280;10836;53.068;18.234;2022-08-25T13:45:46;101296.75;;;32.15;48.86
21357;BME280;10836;53.068;18.234;2022-08-25T13:51:23;101289.50;;;32.28;48.10
21357;BME280;10836;53.068;18.234;2022-08-25T13:54:00;101281.06;;;31.79;47.75
21357;BME280;10836;53.068;18.234;2022-08-25T13:56:48;101281.88;;;31.97;48.87
21357;BME280;10836;53.068;18.234;2022-08-25T13:59:28;101273.81;;;31.81;49.07
21357;BME280;10836;53.068;18.234;2022-08-25T14:01:59;101277.75;;;30.98;49.82
21357;BME280;10836;53.068;18.234;2022-08-25T14:07:07;101272.19;;;31.62;49.63
21357;BME280;10836;53.068;18.234;2022-08-25T14:09:59;101272.19;;;31.37;49.06
21357;BME280;10836;53.068;18.234;2022-08-25T14:12:38;101267.38;;;31.73;50.43
21357;BME280;10836;53.068;18.234;2022-08-25T14:18:05;101265.34;;;31.85;49.18
21357;BME280;10836;53.068;18.234;2022-08-25T14:20:35;101268.53;;;31.65;49.08
21357;BME280;10836;53.068;18.234;2022-08-25T14:23:08;101268.94;;;31.64;48.93
21357;BME280;10836;53.068;18.234;2022-08-25T14:25:46;101264.09;;;31.64;50.19
21357;BME280;10836;53.068;18.234;2022-08-25T14:28:18;101259.94;;;30.66;51.91
21357;BME280;10836;53.068;18.234;2022-08-25T14:31:12;101262.38;;;30.78;51.58
21357;BME280;10836;53.068;18.234;2022-08-25T14:33:44;101257.16;;;30.87;50.57
21357;BME280;10836;53.068;18.234;2022-08-25T14:36:16;101254.31;;;30.80;51.67
21357;BME280;10836;53.068;18.234;2022-08-25T14:38:46;101266.84;;;30.93;51.27
21357;BME280;10836;53.068;18.234;2022-08-25T14:41:22;101260.78;;;30.73;53.00
21357;BME280;10836;53.068;18.234;2022-08-25T14:43:50;101250.56;;;30.48;52.61
21357;BME280;10836;53.068;18.234;2022-08-25T14:46:27;101259.13;;;30.69;52.81
21357;BME280;10836;53.068;18.234;2022-08-25T14:49:00;101256.31;;;30.69;51.75
21357;BME280;10836;53.068;18.234;2022-08-25T14:51:30;101242.78;;;30.20;52.92
21357;BME280;10836;53.068;18.234;2022-08-25T14:54:01;101246.09;;;30.32;52.94
21357;BME280;10836;53.068;18.234;2022-08-25T14:56:30;101241.19;;;30.22;52.69
21357;BME280;10836;53.068;18.234;2022-08-25T14:58:58;101251.94;;;30.02;53.03
21357;BME280;10836;53.068;18.234;2022-08-25T15:01:27;101256.38;;;29.52;53.54
21357;BME280;10836;53.068;18.234;2022-08-25T15:04:03;101245.09;;;29.45;53.55
21357;BME280;10836;53.068;18.234;2022-08-25T15:06:34;101248.91;;;29.74;53.64
21357;BME280;10836;53.068;18.234;2022-08-25T15:09:03;101245.00;;;29.93;53.85